Rio Rico, Texas
Current Conditions -  °F | °C
As of 10:35 AM on Saturday 22 Nov 2014 (Local Time) from KT65 Reporting Station
Overcast Overcast  
Wind Chill: 78°   Ceiling: 2200
Heat Index: 80°   Visibility: 10mi
Dew Point: 67°   Wind: 17mph
Humidity: 70%   Direction: 160°SSE
Pressure: 29.93"   Gusts: 24mph
Location:  26.1456°N, 97.91°W
Report Text: KT65 221635Z AUTO 16015G21KT 10SM BKN022 BKN027 OVC050 26/20 A2993 RMK AO2 LTG DSNT N T02550197
Loading
Personal Weather Stations






























Interactive Weather Map New forecast layout! Learn more

10-Day Weather Forecast

Advertisements
Track Severe Weather on mobile